New Franklin, Ohio
Current Conditions -  °F | °C
As of 2:51 AM on Thursday 29 Jan 2015 (Local Time) from KCAK Reporting Station
Broken Clouds Broken Clouds  
Wind Chill: 12°   Ceiling: 11000
Heat Index: 24°   Visibility: 10mi
Dew Point: 13°   Wind: 14mph
Humidity: 62%   Direction: 170°S
Pressure: 30.13"   Gusts: NA
Location:  40.7427°N, 81.0929°W
Report Text: KCAK 290751Z 17012KT 10SM BKN110 M04/M11 A3013 RMK AO2 SLP221 T10441106 $
Loading
Personal Weather Stations






























Interactive Weather Map New forecast layout! Learn more

10-Day Weather Forecast

Advertisements
Track Severe Weather on mobile